Waterloo Regional Airport
KALO : now visible

Airfield :











YOU CAN JOIN US ON...

 
LOGIN :

Register | Disclaimer

   EN    FR    IT 

 









Legend :    VFR   Marginal VFR   IFR   Intensive IFR   Very Intensive IFR
Visi :
Ceiling :
>= 8 km
>= 3000ft
5 to 8 km
1000 to 3000 ft
1500m to 5 km
500 to 1000 ft
800 to 1500m
200 to 500 ft
< 800m
< 200 ft
Symbols :   Thunderstorms  Fog  Heavy snow  Heavy precipitations  Wind > 20 kt







- Airport Elevation : 873 ft
- IATA code : ALO


KALO - Waterloo Regional

CURRENT METAR :
  • 160554Z AUTO 00000KT 1/4SM R12/1000V1600FT FG VV001 17/16 A3004 RMK AO2 SLP168 T01720161 10261 20167 403110167 51004

EXPIRED METARs :
  • 160512Z AUTO 00000KT 1/4SM R12/1200VP6000FT FG VV001 18/17 A3004 RMK AO2 T01780167
  • 160500Z AUTO 06003KT 1 1/4SM BR SCT003 18/16 A3004 RMK AO2 T01780161
  • 160454Z AUTO 05004KT 7SM FEW003 17/16 A3004 RMK AO2 SLP166 T01720156
  • 160354Z AUTO 00000KT 10SM CLR 18/16 A3004 RMK AO2 SLP168 T01830161

TAF KALO
Valid from the 16 at 06:00 until the 17 at 06:00 UTC


160525Z 1606/1706 VRB02KT 1/2SM FG BKN002
FM161300 12004KT 3SM BR SCT250
FM161800 15008KT P6SM BKN200
No reported NOTAMs for that airfield.



MET'MAP, your aeronautical weather chart ! - Copyright ORBIFLY December 2007 - Disclaimer

ORBIFLY MET'MAP TEAM :

Programming & Development : Alexandra Zaïnal
Concept & Development : Baudouin d'Aumeries
Co-Development & Prog : Marc-Olivier Méhu
Technical & hardware support : Manuel Goepfert

Contact : metmap@orbifly.com




SOURCES & CREDITS :

   NOAA       Earth
Advisory